Time;durP1;ratioP1;P1;durP2;ratioP2;P2;SDS_P1;SDS_P2;PMS_P1;PMS_P2;Temp;Humidity;BMP_temperature;BMP_pressure;BME280_temperature;BME280_humidity;BME280_pressure;Samples;Min_cycle;Max_cycle;Signal;HPM_P1;HPM_P2
2023/12/24 00:00:39;;;;;;;21.20;19.47;;;;;;;;;;4956529;28;20669;-44
2023/12/24 00:03:05;;;;;;;40.10;36.47;;;;;;;;;;4955906;28;20949;-44
2023/12/24 00:05:31;;;;;;;40.47;36.57;;;;;;;;;;4956031;28;20799;-44
2023/12/24 00:07:57;;;;;;;35.87;32.80;;;;;;;;;;4955939;28;20900;-44
2023/12/24 00:10:23;;;;;;;40.43;36.93;;;;;;;;;;4955784;28;20821;-44
2023/12/24 00:12:49;;;;;;;40.57;36.63;;;;;;;;;;4955923;28;20771;-44
2023/12/24 00:15:18;;;;;;;38.00;29.70;;;;;;;;;;4955696;28;20414;-43
2023/12/24 00:17:44;;;;;;;47.83;32.83;;;;;;;;;;4955797;28;20839;-44
2023/12/24 00:20:10;;;;;;;40.17;31.67;;;;;;;;;;4955031;28;20182;-44
2023/12/24 00:22:36;;;;;;;52.33;38.40;;;;;;;;;;4955760;28;20441;-44
2023/12/24 00:25:02;;;;;;;40.10;30.70;;;;;;;;;;4955646;28;20659;-44
2023/12/24 00:27:28;;;;;;;46.97;31.43;;;;;;;;;;4955666;28;20489;-44
2023/12/24 00:29:54;;;;;;;37.27;29.10;;;;;;;;;;4955660;28;20735;-44
2023/12/24 00:32:20;;;;;;;37.40;30.60;;;;;;;;;;4955191;28;20458;-43
2023/12/24 00:34:46;;;;;;;49.97;33.97;;;;;;;;;;4955529;28;20915;-44
2023/12/24 00:37:12;;;;;;;39.67;30.17;;;;;;;;;;4955526;28;20787;-44
2023/12/24 00:39:37;;;;;;;40.03;31.42;;;;;;;;;;4955574;28;20464;-44
2023/12/24 00:42:04;;;;;;;60.27;41.37;;;;;;;;;;4956083;28;20717;-44
2023/12/24 00:44:29;;;;;;;53.72;33.47;;;;;;;;;;4955518;28;20770;-45
2023/12/24 00:46:55;;;;;;;54.93;34.13;;;;;;;;;;4973284;28;20669;-44
2023/12/24 00:49:22;;;;;;;54.42;35.35;;;;;;;;;;4960734;28;20418;-44
2023/12/24 00:51:48;;;;;;;49.53;33.67;;;;;;;;;;4965215;28;20189;-44
2023/12/24 00:54:14;;;;;;;58.70;36.63;;;;;;;;;;4968677;28;20304;-44
2023/12/24 00:56:39;;;;;;;45.00;35.90;;;;;;;;;;4957195;28;20405;-44
2023/12/24 00:59:05;;;;;;;48.33;34.70;;;;;;;;;;4959316;28;20186;-44
2023/12/24 01:01:31;;;;;;;41.67;33.67;;;;;;;;;;4959184;28;20441;-44
2023/12/24 01:03:57;;;;;;;55.00;41.13;;;;;;;;;;4968337;28;20428;-44
2023/12/24 01:06:23;;;;;;;48.80;35.08;;;;;;;;;;4964882;28;20516;-44
2023/12/24 01:08:49;;;;;;;50.30;34.10;;;;;;;;;;4960451;28;20177;-44
2023/12/24 01:11:15;;;;;;;51.07;36.37;;;;;;;;;;4972563;28;20433;-44
2023/12/24 01:13:41;;;;;;;44.97;34.07;;;;;;;;;;4955065;28;20408;-44
2023/12/24 01:16:07;;;;;;;57.47;34.03;;;;;;;;;;4971594;28;20424;-44
2023/12/24 01:18:33;;;;;;;61.65;36.97;;;;;;;;;;4958937;28;20425;-44
2023/12/24 01:20:59;;;;;;;55.73;35.30;;;;;;;;;;4954493;28;20229;-44
2023/12/24 01:23:25;;;;;;;63.80;35.13;;;;;;;;;;4954699;28;20431;-43
2023/12/24 01:25:51;;;;;;;79.13;44.37;;;;;;;;;;4954742;28;20414;-44
2023/12/24 01:28:17;;;;;;;82.40;43.85;;;;;;;;;;4956460;28;20517;-44
2023/12/24 01:30:43;;;;;;;62.58;37.95;;;;;;;;;;4953244;29;20667;-44
2023/12/24 01:33:09;;;;;;;55.93;34.07;;;;;;;;;;4954397;28;20434;-44
2023/12/24 01:35:37;;;;;;;64.57;35.13;;;;;;;;;;4954539;28;20421;-43
2023/12/24 01:38:03;;;;;;;68.60;37.22;;;;;;;;;;4954265;28;20189;-44
2023/12/24 01:40:29;;;;;;;71.28;38.45;;;;;;;;;;4954198;28;20669;-44
2023/12/24 01:42:55;;;;;;;65.60;33.87;;;;;;;;;;4954190;28;20202;-43
2023/12/24 01:45:21;;;;;;;79.17;37.07;;;;;;;;;;4954209;28;20758;-44
2023/12/24 01:47:49;;;;;;;77.87;37.13;;;;;;;;;;4954336;28;20484;-45
2023/12/24 01:50:15;;;;;;;64.15;36.00;;;;;;;;;;4954137;28;20414;-43
2023/12/24 01:52:42;;;;;;;50.57;33.03;;;;;;;;;;4954170;28;20682;-43
2023/12/24 01:55:08;;;;;;;45.67;32.50;;;;;;;;;;4954150;28;20414;-44
2023/12/24 01:57:34;;;;;;;39.47;32.72;;;;;;;;;;4954030;28;20229;-43
2023/12/24 02:00:00;;;;;;;56.92;41.03;;;;;;;;;;4954039;28;20182;-44
2023/12/24 02:02:28;;;;;;;48.08;33.30;;;;;;;;;;4953370;28;20629;-44
2023/12/24 02:04:54;;;;;;;50.28;32.20;;;;;;;;;;4953400;28;20188;-43
2023/12/24 02:07:22;;;;;;;52.73;34.20;;;;;;;;;;4953480;28;20602;-43
2023/12/24 02:09:48;;;;;;;47.92;31.77;;;;;;;;;;4953569;28;20497;-44
2023/12/24 02:12:14;;;;;;;69.73;35.97;;;;;;;;;;4953410;28;20273;-44
2023/12/24 02:14:40;;;;;;;69.43;33.57;;;;;;;;;;4953676;28;20410;-43
2023/12/24 02:17:07;;;;;;;71.93;34.47;;;;;;;;;;4953797;28;20425;-43
2023/12/24 02:19:33;;;;;;;83.65;36.97;;;;;;;;;;4953310;28;20917;-44
2023/12/24 02:21:59;;;;;;;76.60;37.67;;;;;;;;;;4953648;28;20212;-44
2023/12/24 02:24:25;;;;;;;81.73;36.53;;;;;;;;;;4953767;28;20790;-44
2023/12/24 02:27:14;;;;;;;82.30;36.05;;;;;;;;;;4953619;28;20461;-44
2023/12/24 02:29:44;;;;;;;91.60;38.60;;;;;;;;;;4947802;28;20209;-43
2023/12/24 02:32:13;;;;;;;76.93;38.90;;;;;;;;;;4953327;28;20217;-44
2023/12/24 02:34:39;;;;;;;55.80;35.63;;;;;;;;;;4953613;28;20178;-44
2023/12/24 02:37:07;;;;;;;65.05;35.92;;;;;;;;;;4953515;28;20189;-44
2023/12/24 02:39:33;;;;;;;64.97;40.97;;;;;;;;;;4953584;28;20190;-43
2023/12/24 02:41:59;;;;;;;43.38;35.10;;;;;;;;;;4953192;28;20241;-44
2023/12/24 02:44:25;;;;;;;40.67;34.40;;;;;;;;;;4953612;28;20580;-43
2023/12/24 02:46:51;;;;;;;37.87;34.07;;;;;;;;;;4953535;28;20498;-43
2023/12/24 02:49:18;;;;;;;36.87;33.43;;;;;;;;;;4953645;28;20952;-44
2023/12/24 02:51:44;;;;;;;44.35;40.17;;;;;;;;;;4953160;28;20952;-44
2023/12/24 02:54:10;;;;;;;36.53;32.73;;;;;;;;;;4953241;28;20192;-45
2023/12/24 02:56:36;;;;;;;41.10;33.40;;;;;;;;;;4953397;28;20469;-43
2023/12/24 02:59:05;;;;;;;43.72;35.25;;;;;;;;;;4953464;28;20209;-44
2023/12/24 03:01:32;;;;;;;54.40;35.75;;;;;;;;;;4953046;28;20213;-43
2023/12/24 03:03:58;;;;;;;61.55;33.70;;;;;;;;;;4953177;28;20597;-44
2023/12/24 03:06:24;;;;;;;71.32;36.70;;;;;;;;;;4953184;28;20182;-43
2023/12/24 03:08:50;;;;;;;58.50;32.20;;;;;;;;;;4953433;28;20178;-44
2023/12/24 03:11:16;;;;;;;72.37;33.37;;;;;;;;;;4953250;28;20461;-43
2023/12/24 03:13:42;;;;;;;85.80;36.67;;;;;;;;;;4953400;28;20410;-43
2023/12/24 03:16:08;;;;;;;82.80;35.43;;;;;;;;;;4953271;28;20553;-43
2023/12/24 03:18:34;;;;;;;92.43;38.10;;;;;;;;;;4953263;28;20425;-43
2023/12/24 03:21:00;;;;;;;77.70;33.47;;;;;;;;;;4952959;28;20489;-43
2023/12/24 03:23:26;;;;;;;83.05;35.55;;;;;;;;;;4953295;28;20976;-43
2023/12/24 03:25:53;;;;;;;101.97;38.63;;;;;;;;;;4953285;28;20257;-43
2023/12/24 03:28:19;;;;;;;92.07;36.70;;;;;;;;;;4953472;28;20257;-43
2023/12/24 03:30:45;;;;;;;90.33;36.20;;;;;;;;;;4967577;28;20209;-44
2023/12/24 03:33:11;;;;;;;89.33;34.87;;;;;;;;;;4961576;28;20425;-43
2023/12/24 03:35:37;;;;;;;113.22;39.42;;;;;;;;;;4959208;28;20405;-43
2023/12/24 03:38:04;;;;;;;110.65;39.13;;;;;;;;;;4966465;28;20257;-43
2023/12/24 03:40:30;;;;;;;109.72;40.63;;;;;;;;;;4933918;29;20181;-43
2023/12/24 03:42:56;;;;;;;110.43;39.20;;;;;;;;;;4955078;28;20198;-44
2023/12/24 03:45:23;;;;;;;104.90;37.97;;;;;;;;;;4942725;28;20454;-44
2023/12/24 03:47:48;;;;;;;102.35;36.60;;;;;;;;;;4947488;28;20457;-44
2023/12/24 03:50:14;;;;;;;111.73;38.90;;;;;;;;;;4950834;28;20189;-44
2023/12/24 03:52:40;;;;;;;116.80;40.10;;;;;;;;;;4939600;29;20475;-44
2023/12/24 03:55:06;;;;;;;128.00;40.90;;;;;;;;;;4956824;28;20201;-44
2023/12/24 03:57:32;;;;;;;117.50;39.28;;;;;;;;;;4947520;28;20542;-44
2023/12/24 03:59:58;;;;;;;109.87;37.90;;;;;;;;;;4943380;28;20229;-44
2023/12/24 04:02:24;;;;;;;108.77;37.67;;;;;;;;;;4946855;29;20528;-44
2023/12/24 04:04:50;;;;;;;105.82;37.88;;;;;;;;;;4950931;28;20532;-44
2023/12/24 04:07:17;;;;;;;107.72;39.58;;;;;;;;;;4939004;29;20194;-44
2023/12/24 04:09:43;;;;;;;114.82;39.25;;;;;;;;;;4956521;28;20177;-44
2023/12/24 04:12:09;;;;;;;114.80;41.53;;;;;;;;;;4938894;28;20203;-44
2023/12/24 04:14:39;;;;;;;140.82;48.63;;;;;;;;;;4948433;28;20204;-44
2023/12/24 04:17:06;;;;;;;116.07;41.22;;;;;;;;;;4956167;28;20616;-44
2023/12/24 04:19:32;;;;;;;117.75;41.08;;;;;;;;;;4954796;28;20224;-44
2023/12/24 04:21:58;;;;;;;104.28;39.17;;;;;;;;;;4955702;28;20198;-44
2023/12/24 04:24:24;;;;;;;116.28;40.97;;;;;;;;;;4961875;28;20184;-44
2023/12/24 04:26:50;;;;;;;123.82;40.95;;;;;;;;;;4955993;28;20736;-44
2023/12/24 04:29:16;;;;;;;129.07;42.03;;;;;;;;;;4955919;28;20182;-43
2023/12/24 04:31:42;;;;;;;133.80;43.53;;;;;;;;;;4955488;28;20429;-43
2023/12/24 04:34:08;;;;;;;135.73;43.17;;;;;;;;;;4954257;28;20917;-43
2023/12/24 04:36:34;;;;;;;132.87;42.93;;;;;;;;;;4955695;28;20178;-44
2023/12/24 04:39:00;;;;;;;126.10;42.53;;;;;;;;;;4955660;28;20410;-43
2023/12/24 04:41:29;;;;;;;132.90;42.90;;;;;;;;;;4955442;28;20193;-44
2023/12/24 04:43:56;;;;;;;134.90;43.03;;;;;;;;;;4955521;28;20174;-44
2023/12/24 04:46:22;;;;;;;127.88;40.33;;;;;;;;;;4955610;28;20220;-44
2023/12/24 04:48:48;;;;;;;101.47;36.33;;;;;;;;;;4955549;28;20588;-44
2023/12/24 04:51:14;;;;;;;129.87;42.83;;;;;;;;;;4954964;28;20194;-43
2023/12/24 04:53:40;;;;;;;130.10;42.33;;;;;;;;;;4954599;28;20413;-43
2023/12/24 04:56:06;;;;;;;127.63;43.30;;;;;;;;;;4955397;28;20420;-43
2023/12/24 04:58:32;;;;;;;116.95;41.83;;;;;;;;;;4955409;28;20654;-44
2023/12/24 05:00:58;;;;;;;92.33;39.07;;;;;;;;;;4955037;28;20192;-43
2023/12/24 05:03:24;;;;;;;92.03;37.87;;;;;;;;;;4955375;28;20414;-43
2023/12/24 05:05:50;;;;;;;99.03;39.13;;;;;;;;;;4955167;28;20546;-43
2023/12/24 05:08:16;;;;;;;94.43;38.27;;;;;;;;;;4955040;28;20465;-43
2023/12/24 05:10:43;;;;;;;124.63;41.63;;;;;;;;;;4955061;28;20598;-43
2023/12/24 05:13:11;;;;;;;127.38;42.75;;;;;;;;;;4954905;28;20285;-44
2023/12/24 05:15:37;;;;;;;120.25;41.35;;;;;;;;;;4955138;28;20170;-43
2023/12/24 05:18:03;;;;;;;102.90;39.73;;;;;;;;;;4954999;28;20273;-43
2023/12/24 05:20:29;;;;;;;103.75;42.00;;;;;;;;;;4954622;28;20481;-43
2023/12/24 05:22:56;;;;;;;110.10;40.00;;;;;;;;;;4954920;28;20730;-43
2023/12/24 05:25:22;;;;;;;117.72;41.28;;;;;;;;;;4954987;28;20495;-44
2023/12/24 05:27:48;;;;;;;103.33;40.03;;;;;;;;;;4954822;28;20206;-43
2023/12/24 05:30:14;;;;;;;104.70;39.43;;;;;;;;;;4954798;28;20966;-43
2023/12/24 05:32:40;;;;;;;106.43;38.57;;;;;;;;;;4954487;28;20426;-43
2023/12/24 05:35:06;;;;;;;123.78;41.97;;;;;;;;;;4954497;28;20410;-43
2023/12/24 05:37:32;;;;;;;126.15;42.47;;;;;;;;;;4954555;28;20597;-43
2023/12/24 05:39:58;;;;;;;130.77;42.50;;;;;;;;;;4954693;28;20249;-43
2023/12/24 05:42:24;;;;;;;133.17;43.00;;;;;;;;;;4954499;28;20445;-43
2023/12/24 05:44:50;;;;;;;132.70;42.30;;;;;;;;;;4954428;28;20418;-43
2023/12/24 05:47:16;;;;;;;162.33;53.10;;;;;;;;;;4954381;28;20468;-43
2023/12/24 05:49:42;;;;;;;130.50;43.73;;;;;;;;;;4954752;28;20416;-43
2023/12/24 05:52:08;;;;;;;131.07;44.25;;;;;;;;;;4954205;28;20437;-44
2023/12/24 05:54:34;;;;;;;129.10;41.72;;;;;;;;;;4954515;28;20539;-44
2023/12/24 05:57:00;;;;;;;132.93;43.07;;;;;;;;;;4954571;28;20500;-44
2023/12/24 05:59:26;;;;;;;124.90;41.53;;;;;;;;;;4954426;28;20430;-43
2023/12/24 06:01:52;;;;;;;135.60;43.73;;;;;;;;;;4954161;28;20958;-43
2023/12/24 06:04:18;;;;;;;135.30;44.67;;;;;;;;;;4953737;28;20972;-44
2023/12/24 06:06:44;;;;;;;135.07;43.72;;;;;;;;;;4954205;28;20973;-43
2023/12/24 06:09:10;;;;;;;136.00;44.17;;;;;;;;;;4954049;28;20177;-44
2023/12/24 06:11:36;;;;;;;132.75;42.80;;;;;;;;;;4953734;28;20678;-43
2023/12/24 06:14:02;;;;;;;133.50;42.77;;;;;;;;;;4954316;28;20193;-43
2023/12/24 06:16:29;;;;;;;127.00;41.35;;;;;;;;;;4954202;28;20402;-44
2023/12/24 06:18:54;;;;;;;131.80;43.60;;;;;;;;;;4973342;28;20184;-43
2023/12/24 06:21:20;;;;;;;110.97;38.47;;;;;;;;;;4957572;28;20190;-44
2023/12/24 06:23:47;;;;;;;115.85;39.40;;;;;;;;;;4965566;28;20420;-44
2023/12/24 06:26:13;;;;;;;127.73;41.87;;;;;;;;;;4965860;28;20174;-44
2023/12/24 06:28:38;;;;;;;127.10;41.20;;;;;;;;;;4953548;28;20596;-44
2023/12/24 06:31:04;;;;;;;121.77;39.77;;;;;;;;;;4953803;28;20406;-44
2023/12/24 06:33:30;;;;;;;126.87;41.73;;;;;;;;;;4935214;28;20418;-44
2023/12/24 06:35:56;;;;;;;119.00;40.73;;;;;;;;;;4949769;29;20440;-44
2023/12/24 06:38:22;;;;;;;152.45;49.83;;;;;;;;;;4943113;28;20410;-44
2023/12/24 06:40:48;;;;;;;120.67;39.60;;;;;;;;;;4941235;28;20216;-44
2023/12/24 06:43:14;;;;;;;122.33;40.23;;;;;;;;;;4951703;28;20478;-43
2023/12/24 06:45:40;;;;;;;114.90;38.20;;;;;;;;;;4934550;29;20461;-43
2023/12/24 06:48:06;;;;;;;161.90;51.30;;;;;;;;;;4952362;29;20465;-43
2023/12/24 06:50:32;;;;;;;134.02;45.95;;;;;;;;;;4939252;28;20446;-43
2023/12/24 06:52:58;;;;;;;131.55;41.67;;;;;;;;;;4944543;29;20631;-43
2023/12/24 06:55:24;;;;;;;122.27;41.23;;;;;;;;;;4947214;28;20263;-43
2023/12/24 06:57:50;;;;;;;121.47;41.83;;;;;;;;;;4943194;29;20432;-43
2023/12/24 07:00:16;;;;;;;124.87;41.83;;;;;;;;;;4934314;29;20414;-44
2023/12/24 07:02:42;;;;;;;125.85;41.95;;;;;;;;;;4951824;28;20887;-44
2023/12/24 07:05:08;;;;;;;122.03;40.77;;;;;;;;;;4939950;28;20221;-43
2023/12/24 07:07:34;;;;;;;120.07;41.03;;;;;;;;;;4943801;29;20957;-43
2023/12/24 07:10:00;;;;;;;117.10;40.70;;;;;;;;;;4947633;28;20958;-43
2023/12/24 07:12:28;;;;;;;114.07;39.27;;;;;;;;;;4935578;29;20989;-43
2023/12/24 07:14:54;;;;;;;118.22;42.05;;;;;;;;;;4953364;28;20413;-43
2023/12/24 07:17:20;;;;;;;116.90;40.23;;;;;;;;;;4938764;28;20199;-43
2023/12/24 07:19:46;;;;;;;147.07;49.47;;;;;;;;;;4951198;29;20422;-43
2023/12/24 07:22:16;;;;;;;110.87;41.53;;;;;;;;;;4947230;28;20449;-43
2023/12/24 07:24:41;;;;;;;118.53;41.80;;;;;;;;;;4953699;29;20437;-43
2023/12/24 07:27:07;;;;;;;161.20;67.43;;;;;;;;;;4954416;28;20202;-43
2023/12/24 07:29:33;;;;;;;122.93;42.10;;;;;;;;;;4951865;28;20418;-44
2023/12/24 07:31:59;;;;;;;156.97;51.90;;;;;;;;;;4956227;28;20851;-43
2023/12/24 07:34:25;;;;;;;119.00;43.33;;;;;;;;;;4952608;28;20829;-43
2023/12/24 07:36:52;;;;;;;117.10;44.97;;;;;;;;;;4955528;28;20778;-43
2023/12/24 07:39:18;;;;;;;124.63;44.63;;;;;;;;;;4956461;28;20406;-43
2023/12/24 07:41:44;;;;;;;118.27;42.63;;;;;;;;;;4955133;28;20210;-43
2023/12/24 07:44:10;;;;;;;114.40;41.85;;;;;;;;;;4955343;28;20425;-43
2023/12/24 07:46:36;;;;;;;103.95;41.28;;;;;;;;;;4956420;28;20186;-44
2023/12/24 07:49:02;;;;;;;133.43;49.40;;;;;;;;;;4950454;28;20193;-43
2023/12/24 07:51:29;;;;;;;116.78;42.10;;;;;;;;;;4958291;28;20418;-44
2023/12/24 07:53:55;;;;;;;149.57;51.63;;;;;;;;;;4954888;28;20427;-44
2023/12/24 07:56:21;;;;;;;119.15;46.28;;;;;;;;;;4955198;29;20261;-43
2023/12/24 07:58:47;;;;;;;115.63;44.17;;;;;;;;;;4956841;28;20166;-44
2023/12/24 08:01:13;;;;;;;113.20;42.40;;;;;;;;;;4956436;28;20430;-44
2023/12/24 08:03:39;;;;;;;100.87;40.77;;;;;;;;;;4955049;28;20927;-43
2023/12/24 08:06:06;;;;;;;105.75;43.47;;;;;;;;;;4954567;28;20413;-43
2023/12/24 08:08:32;;;;;;;115.53;42.55;;;;;;;;;;4956361;28;20202;-43
2023/12/24 08:10:59;;;;;;;98.82;40.78;;;;;;;;;;4954486;28;20174;-43
2023/12/24 08:13:25;;;;;;;109.30;43.08;;;;;;;;;;4956048;28;20273;-43
2023/12/24 08:15:51;;;;;;;107.23;44.43;;;;;;;;;;4955137;29;20667;-44
2023/12/24 08:18:17;;;;;;;101.53;40.03;;;;;;;;;;4955885;28;20501;-44
2023/12/24 08:20:42;;;;;;;99.50;41.70;;;;;;;;;;4955862;28;20489;-43
2023/12/24 08:23:10;;;;;;;123.30;48.57;;;;;;;;;;4949235;28;20293;-43
2023/12/24 08:25:37;;;;;;;104.35;41.45;;;;;;;;;;4955319;29;20414;-43
2023/12/24 08:28:05;;;;;;;112.35;40.70;;;;;;;;;;4954477;28;20686;-43
2023/12/24 08:30:31;;;;;;;125.25;44.25;;;;;;;;;;4955619;28;20179;-43
2023/12/24 08:32:57;;;;;;;129.02;42.70;;;;;;;;;;4954310;28;20198;-44
2023/12/24 08:35:23;;;;;;;131.67;43.07;;;;;;;;;;4955645;28;20551;-44
2023/12/24 08:37:49;;;;;;;130.90;42.47;;;;;;;;;;4956583;28;20414;-44
2023/12/24 08:40:15;;;;;;;129.57;42.13;;;;;;;;;;4959792;28;20508;-44
2023/12/24 08:42:41;;;;;;;160.63;51.77;;;;;;;;;;4974175;28;20429;-44
2023/12/24 08:45:08;;;;;;;125.40;41.87;;;;;;;;;;4955602;28;20415;-44
2023/12/24 08:47:34;;;;;;;123.90;42.55;;;;;;;;;;4971233;28;20465;-44
2023/12/24 08:50:00;;;;;;;123.88;41.83;;;;;;;;;;4962742;28;20215;-44
2023/12/24 08:52:26;;;;;;;127.63;42.67;;;;;;;;;;4963018;28;20258;-45
2023/12/24 08:54:52;;;;;;;129.20;43.17;;;;;;;;;;4971210;28;20773;-45
2023/12/24 08:57:18;;;;;;;120.57;42.57;;;;;;;;;;4955406;28;20410;-45
2023/12/24 08:59:44;;;;;;;120.40;41.50;;;;;;;;;;4955361;28;20545;-45
2023/12/24 09:02:10;;;;;;;125.10;44.33;;;;;;;;;;4970041;28;20455;-45
2023/12/24 09:04:36;;;;;;;139.33;50.93;;;;;;;;;;4962961;28;20540;-45
2023/12/24 09:07:02;;;;;;;100.60;38.90;;;;;;;;;;4962368;28;20464;-45
2023/12/24 09:09:28;;;;;;;102.60;39.50;;;;;;;;;;4971068;28;20410;-45
2023/12/24 09:11:54;;;;;;;111.03;41.03;;;;;;;;;;4954909;28;20826;-45
2023/12/24 09:14:20;;;;;;;114.10;41.92;;;;;;;;;;4973539;28;20194;-46
2023/12/24 09:16:46;;;;;;;121.87;43.00;;;;;;;;;;4968990;28;20193;-45
2023/12/24 09:19:12;;;;;;;123.27;42.70;;;;;;;;;;4963272;28;20422;-45
2023/12/24 09:21:39;;;;;;;119.10;41.42;;;;;;;;;;4961349;28;20948;-46
2023/12/24 09:24:06;;;;;;;120.88;42.70;;;;;;;;;;4970897;28;20663;-45
2023/12/24 09:26:32;;;;;;;119.43;43.40;;;;;;;;;;4954949;28;20229;-45
2023/12/24 09:28:57;;;;;;;94.90;39.80;;;;;;;;;;4973398;28;20666;-45
2023/12/24 09:31:23;;;;;;;93.83;40.47;;;;;;;;;;4959037;28;21054;-45
2023/12/24 09:33:49;;;;;;;108.35;41.03;;;;;;;;;;4954834;28;20835;-45
2023/12/24 09:36:15;;;;;;;108.00;40.10;;;;;;;;;;4960817;28;20181;-46
2023/12/24 09:38:41;;;;;;;99.80;39.33;;;;;;;;;;4968085;28;20836;-45
2023/12/24 09:41:07;;;;;;;93.93;39.10;;;;;;;;;;4935159;29;20777;-47
2023/12/24 09:43:35;;;;;;;84.78;37.28;;;;;;;;;;4952925;29;20419;-45
2023/12/24 09:46:01;;;;;;;79.22;37.28;;;;;;;;;;4940245;28;20182;-46
2023/12/24 09:48:27;;;;;;;84.97;37.22;;;;;;;;;;4945090;29;20198;-45
2023/12/24 09:50:53;;;;;;;82.90;37.70;;;;;;;;;;4947985;28;20179;-45
2023/12/24 09:53:19;;;;;;;95.10;39.17;;;;;;;;;;4936969;29;20411;-46
2023/12/24 09:55:45;;;;;;;87.70;38.03;;;;;;;;;;4954330;28;20402;-45
2023/12/24 09:58:11;;;;;;;96.35;38.92;;;;;;;;;;4950655;28;20777;-45
2023/12/24 10:00:37;;;;;;;94.90;41.60;;;;;;;;;;4940531;28;20189;-45
2023/12/24 10:03:03;;;;;;;94.70;39.10;;;;;;;;;;4944268;29;20805;-45
2023/12/24 10:05:29;;;;;;;109.78;42.28;;;;;;;;;;4948358;28;20457;-44
2023/12/24 10:07:55;;;;;;;106.80;50.43;;;;;;;;;;4935335;29;20699;-45
2023/12/24 10:10:30;;;;;;;105.13;42.67;;;;;;;;;;4949453;28;20464;-45
2023/12/24 10:13:04;;;;;;;99.70;40.25;;;;;;;;;;4935635;28;20519;-45
2023/12/24 10:15:32;;;;;;;130.85;48.30;;;;;;;;;;4961417;28;20256;-45
2023/12/24 10:18:15;;;;;;;122.68;50.30;;;;;;;;;;4960762;28;20565;-45
2023/12/24 10:20:42;;;;;;;98.00;39.80;;;;;;;;;;4943972;28;20533;-45
2023/12/24 10:23:08;;;;;;;104.70;42.28;;;;;;;;;;4940316;29;20213;-45
2023/12/24 10:25:34;;;;;;;102.93;43.70;;;;;;;;;;4951675;28;20175;-46
2023/12/24 10:28:07;;;;;;;104.00;40.97;;;;;;;;;;4934689;29;20213;-45
2023/12/24 10:30:33;;;;;;;150.75;65.40;;;;;;;;;;4947414;29;20675;-45
2023/12/24 10:33:09;;;;;;;111.60;43.75;;;;;;;;;;4943735;29;20568;-46
2023/12/24 10:35:35;;;;;;;116.30;44.42;;;;;;;;;;4942033;28;20178;-45
2023/12/24 10:38:15;;;;;;;115.10;42.85;;;;;;;;;;4942386;29;20722;-46
2023/12/24 10:40:41;;;;;;;112.28;41.75;;;;;;;;;;4947833;28;20234;-45
2023/12/24 10:43:07;;;;;;;111.93;42.65;;;;;;;;;;4935752;29;20194;-45
2023/12/24 10:45:33;;;;;;;107.27;41.57;;;;;;;;;;4953497;28;20277;-46
2023/12/24 10:47:59;;;;;;;112.17;41.37;;;;;;;;;;4936667;28;20466;-45
2023/12/24 10:50:25;;;;;;;114.80;43.80;;;;;;;;;;4946868;28;20402;-46
2023/12/24 10:52:51;;;;;;;112.20;40.23;;;;;;;;;;4948210;28;20447;-46
2023/12/24 10:55:17;;;;;;;118.68;42.15;;;;;;;;;;4942973;29;20440;-45
2023/12/24 10:58:05;;;;;;;125.82;44.03;;;;;;;;;;4956597;28;20530;-45
2023/12/24 11:00:32;;;;;;;127.55;47.63;;;;;;;;;;4937849;29;20260;-45
2023/12/24 11:02:59;;;;;;;111.47;41.03;;;;;;;;;;4953526;28;20208;-45
2023/12/24 11:05:44;;;;;;;110.15;39.65;;;;;;;;;;4941964;28;20563;-46
2023/12/24 11:08:22;;;;;;;120.07;42.88;;;;;;;;;;4951695;29;20207;-46
2023/12/24 11:10:55;;;;;;;117.95;39.72;;;;;;;;;;4945397;28;20174;-45
2023/12/24 11:13:33;;;;;;;109.88;40.10;;;;;;;;;;4946441;29;20178;-45
2023/12/24 11:15:59;;;;;;;119.40;42.38;;;;;;;;;;4950769;28;20175;-45
2023/12/24 11:18:42;;;;;;;121.53;42.08;;;;;;;;;;4940020;29;20191;-46
2023/12/24 11:21:08;;;;;;;117.50;40.72;;;;;;;;;;4955980;28;20198;-45
2023/12/24 11:23:34;;;;;;;127.65;41.28;;;;;;;;;;4938091;29;20175;-45
2023/12/24 11:26:00;;;;;;;127.73;42.90;;;;;;;;;;4953560;28;20685;-46
2023/12/24 11:28:26;;;;;;;120.72;44.67;;;;;;;;;;4944736;28;20982;-45
2023/12/24 11:30:51;;;;;;;126.00;39.97;;;;;;;;;;4945245;28;20182;-45
2023/12/24 11:33:30;;;;;;;127.27;43.07;;;;;;;;;;4952423;28;20413;-46
2023/12/24 11:35:56;;;;;;;129.68;42.30;;;;;;;;;;4939219;29;20963;-45
2023/12/24 11:38:35;;;;;;;155.05;51.47;;;;;;;;;;4955470;28;20175;-45
2023/12/24 11:41:07;;;;;;;116.97;40.60;;;;;;;;;;4955682;28;20698;-45
2023/12/24 11:43:34;;;;;;;120.50;40.67;;;;;;;;;;4940665;28;20253;-45
2023/12/24 11:46:00;;;;;;;101.97;38.78;;;;;;;;;;4948963;29;20618;-47
2023/12/24 11:48:26;;;;;;;108.67;38.70;;;;;;;;;;4948718;28;20203;-46
2023/12/24 11:51:02;;;;;;;117.60;40.20;;;;;;;;;;4940793;28;20497;-46
2023/12/24 11:53:29;;;;;;;123.97;42.80;;;;;;;;;;4955169;28;20168;-46
2023/12/24 11:56:11;;;;;;;160.50;53.95;;;;;;;;;;4937350;29;20855;-45
2023/12/24 11:58:38;;;;;;;151.18;52.22;;;;;;;;;;4954749;29;20185;-45
2023/12/24 12:01:04;;;;;;;108.00;39.20;;;;;;;;;;4941243;28;20182;-46
2023/12/24 12:03:34;;;;;;;126.63;46.40;;;;;;;;;;4947686;29;20178;-46
2023/12/24 12:06:00;;;;;;;149.63;55.15;;;;;;;;;;4948420;28;20198;-46
2023/12/24 12:08:30;;;;;;;142.63;53.55;;;;;;;;;;4940438;29;20247;-45
2023/12/24 12:10:56;;;;;;;127.28;47.20;;;;;;;;;;4955566;28;20166;-46
2023/12/24 12:13:22;;;;;;;108.63;40.13;;;;;;;;;;4955903;28;20228;-46
2023/12/24 12:15:48;;;;;;;124.32;43.00;;;;;;;;;;4954674;28;20418;-46
2023/12/24 12:18:15;;;;;;;183.00;70.20;;;;;;;;;;4943765;28;20175;-46
2023/12/24 12:20:41;;;;;;;136.75;43.47;;;;;;;;;;4944803;28;20453;-47
2023/12/24 12:23:08;;;;;;;125.77;44.67;;;;;;;;;;4951905;28;20301;-46
2023/12/24 12:25:34;;;;;;;165.23;54.47;;;;;;;;;;4936863;29;20922;-46
2023/12/24 12:28:00;;;;;;;169.05;57.60;;;;;;;;;;4934692;28;20634;-45
2023/12/24 12:30:26;;;;;;;138.10;49.93;;;;;;;;;;4950385;29;20189;-45
2023/12/24 12:32:52;;;;;;;135.83;43.13;;;;;;;;;;4946999;28;21013;-46
2023/12/24 12:35:18;;;;;;;173.30;53.70;;;;;;;;;;4953989;28;20427;-46
2023/12/24 12:37:44;;;;;;;136.83;46.70;;;;;;;;;;4950100;28;20407;-46
2023/12/24 12:40:10;;;;;;;134.60;44.43;;;;;;;;;;4935104;29;20778;-46
2023/12/24 12:42:36;;;;;;;164.70;54.80;;;;;;;;;;4954640;28;20462;-45
2023/12/24 12:45:02;;;;;;;135.40;47.35;;;;;;;;;;4939737;28;20182;-45
2023/12/24 12:47:28;;;;;;;138.80;43.22;;;;;;;;;;4936247;29;20241;-45
2023/12/24 12:49:54;;;;;;;141.97;46.33;;;;;;;;;;4938383;29;20179;-45
2023/12/24 12:52:20;;;;;;;180.83;59.93;;;;;;;;;;4947798;28;20436;-45
2023/12/24 12:54:46;;;;;;;130.40;46.63;;;;;;;;;;4935952;29;20410;-44
2023/12/24 12:57:27;;;;;;;141.77;48.45;;;;;;;;;;4947643;28;20500;-45
2023/12/24 13:00:00;;;;;;;184.38;66.80;;;;;;;;;;4942479;28;21042;-44
2023/12/24 13:02:26;;;;;;;129.95;46.83;;;;;;;;;;4947196;28;20209;-45
2023/12/24 13:04:52;;;;;;;136.98;49.78;;;;;;;;;;4948913;28;20193;-44
2023/12/24 13:07:18;;;;;;;165.17;54.30;;;;;;;;;;4954432;28;20214;-44
2023/12/24 13:09:49;;;;;;;133.37;44.70;;;;;;;;;;4953743;28;20403;-45
2023/12/24 13:12:19;;;;;;;138.32;45.03;;;;;;;;;;4935214;29;20419;-44
2023/12/24 13:15:11;;;;;;;145.98;56.05;;;;;;;;;;4948566;28;20258;-45
2023/12/24 13:17:37;;;;;;;135.80;45.25;;;;;;;;;;4950052;29;20249;-44
2023/12/24 13:20:08;;;;;;;135.97;42.20;;;;;;;;;;4941788;28;20179;-43
2023/12/24 13:22:34;;;;;;;173.23;53.20;;;;;;;;;;4941569;28;20430;-44
2023/12/24 13:25:00;;;;;;;125.97;41.15;;;;;;;;;;4941301;29;20180;-44
2023/12/24 13:27:27;;;;;;;138.18;43.30;;;;;;;;;;4953973;28;20226;-44
2023/12/24 13:29:53;;;;;;;134.23;41.00;;;;;;;;;;4954479;28;20249;-44
2023/12/24 13:32:19;;;;;;;119.70;40.43;;;;;;;;;;4936897;28;20289;-44
2023/12/24 13:34:45;;;;;;;126.93;41.57;;;;;;;;;;4937260;29;20419;-44
2023/12/24 13:37:12;;;;;;;130.70;43.77;;;;;;;;;;4944636;29;20422;-44
2023/12/24 13:39:38;;;;;;;160.40;53.03;;;;;;;;;;4948776;28;20506;-44
2023/12/24 13:42:04;;;;;;;99.33;38.83;;;;;;;;;;4935234;29;20287;-44
2023/12/24 13:44:30;;;;;;;137.73;51.28;;;;;;;;;;4954104;28;20902;-44
2023/12/24 13:46:57;;;;;;;105.07;39.65;;;;;;;;;;4937041;28;20297;-44
2023/12/24 13:49:27;;;;;;;115.90;40.17;;;;;;;;;;4948497;29;20540;-44
2023/12/24 13:51:53;;;;;;;126.40;41.60;;;;;;;;;;4944219;28;20242;-43
2023/12/24 13:54:19;;;;;;;127.73;42.50;;;;;;;;;;4940883;29;20630;-44
2023/12/24 13:56:45;;;;;;;126.43;42.90;;;;;;;;;;4952456;28;20785;-44
2023/12/24 13:59:11;;;;;;;122.00;43.07;;;;;;;;;;4934899;29;20403;-44
2023/12/24 14:01:37;;;;;;;111.97;39.70;;;;;;;;;;4952022;28;20442;-44
2023/12/24 14:04:03;;;;;;;113.07;41.93;;;;;;;;;;4952364;28;20422;-44
2023/12/24 14:06:29;;;;;;;104.87;38.00;;;;;;;;;;4952851;28;20778;-45